sensor_id;sensor_type;location;lat;lon;timestamp;P1;durP1;ratioP1;P2;durP2;ratioP2
71959;SDS011;59832;51.146;14.024;2023-09-19T00:00:20;9.18;;;5.85;;
71959;SDS011;59832;51.146;14.024;2023-09-19T00:02:54;6.38;;;5.70;;
71959;SDS011;59832;51.146;14.024;2023-09-19T00:05:21;6.28;;;5.78;;
71959;SDS011;59832;51.146;14.024;2023-09-19T00:07:51;5.82;;;5.32;;
71959;SDS011;59832;51.146;14.024;2023-09-19T00:10:21;5.53;;;5.03;;
71959;SDS011;59832;51.146;14.024;2023-09-19T00:12:51;5.43;;;4.93;;
71959;SDS011;59832;51.146;14.024;2023-09-19T00:15:19;5.55;;;5.03;;
71959;SDS011;59832;51.146;14.024;2023-09-19T00:17:46;6.05;;;5.28;;
71959;SDS011;59832;51.146;14.024;2023-09-19T00:22:43;6.22;;;5.25;;
71959;SDS011;59832;51.146;14.024;2023-09-19T00:25:11;5.28;;;4.88;;
71959;SDS011;59832;51.146;14.024;2023-09-19T00:27:38;7.00;;;5.13;;
71959;SDS011;59832;51.146;14.024;2023-09-19T00:30:12;5.47;;;4.97;;
71959;SDS011;59832;51.146;14.024;2023-09-19T00:32:50;6.72;;;5.03;;
71959;SDS011;59832;51.146;14.024;2023-09-19T00:35:21;5.22;;;4.70;;
71959;SDS011;59832;51.146;14.024;2023-09-19T00:37:50;5.60;;;5.10;;
71959;SDS011;59832;51.146;14.024;2023-09-19T00:40:17;5.70;;;5.20;;
71959;SDS011;59832;51.146;14.024;2023-09-19T00:42:47;6.78;;;4.45;;
71959;SDS011;59832;51.146;14.024;2023-09-19T00:45:15;7.57;;;4.72;;
71959;SDS011;59832;51.146;14.024;2023-09-19T00:47:45;5.53;;;4.97;;
71959;SDS011;59832;51.146;14.024;2023-09-19T00:50:18;5.25;;;4.75;;
71959;SDS011;59832;51.146;14.024;2023-09-19T00:52:47;5.22;;;4.72;;
71959;SDS011;59832;51.146;14.024;2023-09-19T00:55:16;6.53;;;4.93;;
71959;SDS011;59832;51.146;14.024;2023-09-19T00:57:46;5.45;;;5.00;;
71959;SDS011;59832;51.146;14.024;2023-09-19T01:00:14;6.30;;;4.80;;
71959;SDS011;59832;51.146;14.024;2023-09-19T01:02:42;5.60;;;5.10;;
71959;SDS011;59832;51.146;14.024;2023-09-19T01:05:10;5.10;;;4.60;;
71959;SDS011;59832;51.146;14.024;2023-09-19T01:10:07;6.50;;;4.57;;
71959;SDS011;59832;51.146;14.024;2023-09-19T01:12:54;5.70;;;4.90;;
71959;SDS011;59832;51.146;14.024;2023-09-19T01:21:28;4.63;;;4.25;;
71959;SDS011;59832;51.146;14.024;2023-09-19T01:27:17;4.80;;;4.35;;
71959;SDS011;59832;51.146;14.024;2023-09-19T01:30:11;4.67;;;4.20;;
71959;SDS011;59832;51.146;14.024;2023-09-19T01:32:41;4.70;;;4.30;;
71959;SDS011;59832;51.146;14.024;2023-09-19T01:35:09;6.93;;;4.28;;
71959;SDS011;59832;51.146;14.024;2023-09-19T01:37:39;7.82;;;4.22;;
71959;SDS011;59832;51.146;14.024;2023-09-19T01:40:08;4.68;;;4.10;;
71959;SDS011;59832;51.146;14.024;2023-09-19T01:42:40;5.15;;;4.65;;
71959;SDS011;59832;51.146;14.024;2023-09-19T01:51:03;4.97;;;4.47;;
71959;SDS011;59832;51.146;14.024;2023-09-19T01:56:21;5.43;;;4.85;;
71959;SDS011;59832;51.146;14.024;2023-09-19T01:58:53;5.78;;;4.90;;
71959;SDS011;59832;51.146;14.024;2023-09-19T02:01:25;6.15;;;4.80;;
71959;SDS011;59832;51.146;14.024;2023-09-19T02:03:53;5.28;;;4.72;;
71959;SDS011;59832;51.146;14.024;2023-09-19T02:06:20;5.57;;;5.07;;
71959;SDS011;59832;51.146;14.024;2023-09-19T02:11:15;8.55;;;5.35;;
71959;SDS011;59832;51.146;14.024;2023-09-19T02:13:42;6.20;;;4.47;;
71959;SDS011;59832;51.146;14.024;2023-09-19T02:16:09;5.25;;;4.63;;
71959;SDS011;59832;51.146;14.024;2023-09-19T02:18:38;4.97;;;4.53;;
71959;SDS011;59832;51.146;14.024;2023-09-19T02:21:05;4.45;;;4.03;;
71959;SDS011;59832;51.146;14.024;2023-09-19T02:23:33;6.13;;;3.88;;
71959;SDS011;59832;51.146;14.024;2023-09-19T02:25:59;5.22;;;4.15;;
71959;SDS011;59832;51.146;14.024;2023-09-19T02:28:30;4.20;;;3.83;;
71959;SDS011;59832;51.146;14.024;2023-09-19T02:30:58;4.63;;;4.10;;
71959;SDS011;59832;51.146;14.024;2023-09-19T02:33:25;4.40;;;4.10;;
71959;SDS011;59832;51.146;14.024;2023-09-19T02:35:55;4.93;;;4.53;;
71959;SDS011;59832;51.146;14.024;2023-09-19T02:38:24;5.10;;;4.30;;
71959;SDS011;59832;51.146;14.024;2023-09-19T02:40:52;4.95;;;4.45;;
71959;SDS011;59832;51.146;14.024;2023-09-19T02:43:19;7.13;;;4.40;;
71959;SDS011;59832;51.146;14.024;2023-09-19T02:45:46;4.63;;;4.13;;
71959;SDS011;59832;51.146;14.024;2023-09-19T02:48:19;7.80;;;4.03;;
71959;SDS011;59832;51.146;14.024;2023-09-19T02:50:49;4.53;;;4.13;;
71959;SDS011;59832;51.146;14.024;2023-09-19T02:53:16;4.93;;;4.40;;
71959;SDS011;59832;51.146;14.024;2023-09-19T02:55:42;4.85;;;4.35;;
71959;SDS011;59832;51.146;14.024;2023-09-19T02:58:09;4.90;;;4.50;;
71959;SDS011;59832;51.146;14.024;2023-09-19T03:00:40;5.22;;;4.30;;
71959;SDS011;59832;51.146;14.024;2023-09-19T03:03:08;4.97;;;4.50;;
71959;SDS011;59832;51.146;14.024;2023-09-19T03:05:35;3.83;;;3.47;;
71959;SDS011;59832;51.146;14.024;2023-09-19T03:08:02;3.80;;;3.40;;
71959;SDS011;59832;51.146;14.024;2023-09-19T03:10:29;3.75;;;3.40;;
71959;SDS011;59832;51.146;14.024;2023-09-19T03:12:56;3.47;;;3.17;;
71959;SDS011;59832;51.146;14.024;2023-09-19T03:15:25;3.60;;;3.20;;
71959;SDS011;59832;51.146;14.024;2023-09-19T03:17:52;2.97;;;2.73;;
71959;SDS011;59832;51.146;14.024;2023-09-19T03:20:20;2.90;;;2.63;;
71959;SDS011;59832;51.146;14.024;2023-09-19T03:22:47;4.35;;;2.58;;
71959;SDS011;59832;51.146;14.024;2023-09-19T03:25:14;2.85;;;2.53;;
71959;SDS011;59832;51.146;14.024;2023-09-19T03:27:43;2.90;;;2.70;;
71959;SDS011;59832;51.146;14.024;2023-09-19T03:30:10;2.50;;;2.30;;
71959;SDS011;59832;51.146;14.024;2023-09-19T03:32:48;2.25;;;2.03;;
71959;SDS011;59832;51.146;14.024;2023-09-19T03:35:17;4.28;;;2.38;;
71959;SDS011;59832;51.146;14.024;2023-09-19T03:40:11;4.90;;;2.17;;
71959;SDS011;59832;51.146;14.024;2023-09-19T03:45:08;2.90;;;2.10;;
71959;SDS011;59832;51.146;14.024;2023-09-19T03:47:38;2.63;;;2.30;;
71959;SDS011;59832;51.146;14.024;2023-09-19T03:50:05;2.33;;;2.13;;
71959;SDS011;59832;51.146;14.024;2023-09-19T03:52:37;3.08;;;1.85;;
71959;SDS011;59832;51.146;14.024;2023-09-19T03:55:04;3.67;;;2.08;;
71959;SDS011;59832;51.146;14.024;2023-09-19T03:57:30;2.55;;;2.20;;
71959;SDS011;59832;51.146;14.024;2023-09-19T03:59:57;2.78;;;2.00;;
71959;SDS011;59832;51.146;14.024;2023-09-19T04:02:24;4.47;;;2.20;;
71959;SDS011;59832;51.146;14.024;2023-09-19T04:04:51;2.10;;;1.90;;
71959;SDS011;59832;51.146;14.024;2023-09-19T04:07:18;3.25;;;2.00;;
71959;SDS011;59832;51.146;14.024;2023-09-19T04:09:49;2.30;;;1.90;;
71959;SDS011;59832;51.146;14.024;2023-09-19T04:12:15;2.20;;;1.75;;
71959;SDS011;59832;51.146;14.024;2023-09-19T04:14:45;2.55;;;1.80;;
71959;SDS011;59832;51.146;14.024;2023-09-19T04:17:11;2.00;;;1.80;;
71959;SDS011;59832;51.146;14.024;2023-09-19T04:19:38;2.10;;;1.90;;
71959;SDS011;59832;51.146;14.024;2023-09-19T04:22:04;2.07;;;1.87;;
71959;SDS011;59832;51.146;14.024;2023-09-19T04:24:30;1.83;;;1.73;;
71959;SDS011;59832;51.146;14.024;2023-09-19T04:26:58;2.47;;;1.83;;
71959;SDS011;59832;51.146;14.024;2023-09-19T04:29:25;3.40;;;1.80;;
71959;SDS011;59832;51.146;14.024;2023-09-19T04:31:56;3.08;;;1.88;;
71959;SDS011;59832;51.146;14.024;2023-09-19T04:34:23;1.88;;;1.60;;
71959;SDS011;59832;51.146;14.024;2023-09-19T04:36:50;2.13;;;1.85;;
71959;SDS011;59832;51.146;14.024;2023-09-19T04:39:17;2.78;;;1.30;;
71959;SDS011;59832;51.146;14.024;2023-09-19T04:41:44;2.53;;;1.48;;
71959;SDS011;59832;51.146;14.024;2023-09-19T04:44:11;2.75;;;1.63;;
71959;SDS011;59832;51.146;14.024;2023-09-19T04:46:38;1.55;;;1.30;;
71959;SDS011;59832;51.146;14.024;2023-09-19T04:49:05;1.85;;;1.10;;
71959;SDS011;59832;51.146;14.024;2023-09-19T04:51:32;3.53;;;1.33;;
71959;SDS011;59832;51.146;14.024;2023-09-19T04:54:00;1.65;;;1.55;;
71959;SDS011;59832;51.146;14.024;2023-09-19T04:56:27;1.52;;;1.27;;
71959;SDS011;59832;51.146;14.024;2023-09-19T04:58:54;1.95;;;1.45;;
71959;SDS011;59832;51.146;14.024;2023-09-19T05:01:21;3.20;;;1.30;;
71959;SDS011;59832;51.146;14.024;2023-09-19T05:03:49;3.08;;;1.40;;
71959;SDS011;59832;51.146;14.024;2023-09-19T05:06:18;2.95;;;1.40;;
71959;SDS011;59832;51.146;14.024;2023-09-19T05:08:47;2.30;;;1.10;;
71959;SDS011;59832;51.146;14.024;2023-09-19T05:11:18;1.70;;;1.30;;
71959;SDS011;59832;51.146;14.024;2023-09-19T05:16:12;1.30;;;1.20;;
71959;SDS011;59832;51.146;14.024;2023-09-19T05:18:38;3.17;;;1.13;;
71959;SDS011;59832;51.146;14.024;2023-09-19T05:21:05;2.05;;;1.50;;
71959;SDS011;59832;51.146;14.024;2023-09-19T05:23:32;3.13;;;1.43;;
71959;SDS011;59832;51.146;14.024;2023-09-19T05:25:58;4.70;;;1.45;;
71959;SDS011;59832;51.146;14.024;2023-09-19T05:30:53;4.57;;;1.50;;
71959;SDS011;59832;51.146;14.024;2023-09-19T05:33:19;1.83;;;1.40;;
71959;SDS011;59832;51.146;14.024;2023-09-19T05:35:49;1.70;;;1.10;;
71959;SDS011;59832;51.146;14.024;2023-09-19T05:38:15;1.52;;;1.20;;
71959;SDS011;59832;51.146;14.024;2023-09-19T05:40:45;2.17;;;1.42;;
71959;SDS011;59832;51.146;14.024;2023-09-19T05:43:12;3.00;;;1.33;;
71959;SDS011;59832;51.146;14.024;2023-09-19T05:45:40;2.25;;;1.33;;
71959;SDS011;59832;51.146;14.024;2023-09-19T05:48:08;1.45;;;1.35;;
71959;SDS011;59832;51.146;14.024;2023-09-19T05:50:35;3.67;;;1.63;;
71959;SDS011;59832;51.146;14.024;2023-09-19T05:53:02;2.22;;;1.40;;
71959;SDS011;59832;51.146;14.024;2023-09-19T05:55:30;1.30;;;1.20;;
71959;SDS011;59832;51.146;14.024;2023-09-19T05:58:00;1.58;;;1.05;;
71959;SDS011;59832;51.146;14.024;2023-09-19T06:00:26;2.53;;;1.30;;
71959;SDS011;59832;51.146;14.024;2023-09-19T06:02:56;1.48;;;1.30;;
71959;SDS011;59832;51.146;14.024;2023-09-19T06:05:24;1.75;;;1.33;;
71959;SDS011;59832;51.146;14.024;2023-09-19T06:07:53;1.88;;;1.45;;
71959;SDS011;59832;51.146;14.024;2023-09-19T06:10:20;1.42;;;1.33;;
71959;SDS011;59832;51.146;14.024;2023-09-19T06:12:49;1.23;;;1.10;;
71959;SDS011;59832;51.146;14.024;2023-09-19T06:15:16;3.25;;;1.40;;
71959;SDS011;59832;51.146;14.024;2023-09-19T06:17:52;1.50;;;1.40;;
71959;SDS011;59832;51.146;14.024;2023-09-19T06:20:23;1.40;;;1.30;;
71959;SDS011;59832;51.146;14.024;2023-09-19T06:22:52;1.95;;;1.27;;
71959;SDS011;59832;51.146;14.024;2023-09-19T06:25:20;1.23;;;1.13;;
71959;SDS011;59832;51.146;14.024;2023-09-19T06:27:50;1.92;;;1.40;;
71959;SDS011;59832;51.146;14.024;2023-09-19T06:30:21;3.20;;;1.55;;
71959;SDS011;59832;51.146;14.024;2023-09-19T06:32:55;2.28;;;1.52;;
71959;SDS011;59832;51.146;14.024;2023-09-19T06:35:22;2.25;;;1.63;;
71959;SDS011;59832;51.146;14.024;2023-09-19T06:37:49;3.85;;;1.80;;
71959;SDS011;59832;51.146;14.024;2023-09-19T06:40:17;2.05;;;1.77;;
71959;SDS011;59832;51.146;14.024;2023-09-19T06:42:45;1.70;;;1.50;;
71959;SDS011;59832;51.146;14.024;2023-09-19T06:45:13;3.80;;;1.80;;
71959;SDS011;59832;51.146;14.024;2023-09-19T06:47:44;2.05;;;1.70;;
71959;SDS011;59832;51.146;14.024;2023-09-19T06:50:12;1.92;;;1.30;;
71959;SDS011;59832;51.146;14.024;2023-09-19T06:52:45;1.77;;;1.52;;
71959;SDS011;59832;51.146;14.024;2023-09-19T06:55:14;2.10;;;1.90;;
71959;SDS011;59832;51.146;14.024;2023-09-19T06:57:42;2.88;;;2.17;;
71959;SDS011;59832;51.146;14.024;2023-09-19T07:00:12;2.58;;;2.30;;
71959;SDS011;59832;51.146;14.024;2023-09-19T07:02:45;2.50;;;1.92;;
71959;SDS011;59832;51.146;14.024;2023-09-19T07:05:20;3.65;;;1.80;;
71959;SDS011;59832;51.146;14.024;2023-09-19T07:07:48;2.72;;;1.48;;
71959;SDS011;59832;51.146;14.024;2023-09-19T07:10:14;3.70;;;1.20;;
71959;SDS011;59832;51.146;14.024;2023-09-19T07:12:41;1.87;;;1.40;;
71959;SDS011;59832;51.146;14.024;2023-09-19T07:17:35;1.55;;;1.40;;
71959;SDS011;59832;51.146;14.024;2023-09-19T07:20:03;2.92;;;1.70;;
71959;SDS011;59832;51.146;14.024;2023-09-19T07:22:34;3.03;;;1.20;;
71959;SDS011;59832;51.146;14.024;2023-09-19T07:25:01;3.42;;;1.30;;
71959;SDS011;59832;51.146;14.024;2023-09-19T07:27:27;1.92;;;1.30;;
71959;SDS011;59832;51.146;14.024;2023-09-19T07:29:54;2.20;;;1.10;;
71959;SDS011;59832;51.146;14.024;2023-09-19T07:32:20;1.33;;;1.23;;
71959;SDS011;59832;51.146;14.024;2023-09-19T07:34:47;1.08;;;0.90;;
71959;SDS011;59832;51.146;14.024;2023-09-19T07:37:13;1.83;;;1.00;;
71959;SDS011;59832;51.146;14.024;2023-09-19T07:39:42;3.25;;;1.15;;
71959;SDS011;59832;51.146;14.024;2023-09-19T07:42:11;2.20;;;0.90;;
71959;SDS011;59832;51.146;14.024;2023-09-19T07:44:44;2.35;;;1.20;;
71959;SDS011;59832;51.146;14.024;2023-09-19T07:47:13;2.03;;;0.95;;
71959;SDS011;59832;51.146;14.024;2023-09-19T07:49:40;1.58;;;0.90;;
71959;SDS011;59832;51.146;14.024;2023-09-19T07:52:08;2.83;;;0.88;;
71959;SDS011;59832;51.146;14.024;2023-09-19T07:54:36;3.80;;;1.05;;
71959;SDS011;59832;51.146;14.024;2023-09-19T07:57:03;3.28;;;1.10;;
71959;SDS011;59832;51.146;14.024;2023-09-19T07:59:30;1.48;;;1.00;;
71959;SDS011;59832;51.146;14.024;2023-09-19T08:01:56;1.17;;;0.90;;
71959;SDS011;59832;51.146;14.024;2023-09-19T08:06:52;2.28;;;0.93;;
71959;SDS011;59832;51.146;14.024;2023-09-19T08:09:18;1.17;;;1.07;;
71959;SDS011;59832;51.146;14.024;2023-09-19T08:11:50;1.33;;;0.80;;
71959;SDS011;59832;51.146;14.024;2023-09-19T08:14:17;1.80;;;0.93;;
71959;SDS011;59832;51.146;14.024;2023-09-19T08:16:43;1.55;;;0.90;;
71959;SDS011;59832;51.146;14.024;2023-09-19T08:19:10;1.35;;;1.00;;
71959;SDS011;59832;51.146;14.024;2023-09-19T08:21:37;1.75;;;0.80;;
71959;SDS011;59832;51.146;14.024;2023-09-19T08:24:03;1.23;;;0.90;;
71959;SDS011;59832;51.146;14.024;2023-09-19T08:26:30;1.45;;;0.63;;
71959;SDS011;59832;51.146;14.024;2023-09-19T08:28:57;1.80;;;0.90;;
71959;SDS011;59832;51.146;14.024;2023-09-19T08:31:24;0.95;;;0.75;;
71959;SDS011;59832;51.146;14.024;2023-09-19T08:33:52;1.00;;;0.90;;
71959;SDS011;59832;51.146;14.024;2023-09-19T08:36:19;1.95;;;0.90;;
71959;SDS011;59832;51.146;14.024;2023-09-19T08:38:46;2.40;;;0.93;;
71959;SDS011;59832;51.146;14.024;2023-09-19T08:41:13;5.18;;;0.98;;
71959;SDS011;59832;51.146;14.024;2023-09-19T08:43:39;1.08;;;0.88;;
71959;SDS011;59832;51.146;14.024;2023-09-19T08:46:10;1.17;;;0.80;;
71959;SDS011;59832;51.146;14.024;2023-09-19T08:48:54;1.98;;;0.90;;
71959;SDS011;59832;51.146;14.024;2023-09-19T08:51:28;1.05;;;0.77;;
71959;SDS011;59832;51.146;14.024;2023-09-19T08:54:08;3.05;;;0.80;;
71959;SDS011;59832;51.146;14.024;2023-09-19T08:56:42;2.70;;;0.90;;
71959;SDS011;59832;51.146;14.024;2023-09-19T08:59:09;2.88;;;1.30;;
71959;SDS011;59832;51.146;14.024;2023-09-19T09:01:37;1.63;;;0.73;;
71959;SDS011;59832;51.146;14.024;2023-09-19T09:04:09;1.38;;;1.08;;
71959;SDS011;59832;51.146;14.024;2023-09-19T09:06:39;1.65;;;1.02;;
71959;SDS011;59832;51.146;14.024;2023-09-19T09:09:09;1.80;;;0.90;;
71959;SDS011;59832;51.146;14.024;2023-09-19T09:11:37;1.00;;;0.90;;
71959;SDS011;59832;51.146;14.024;2023-09-19T09:14:06;1.60;;;0.80;;
71959;SDS011;59832;51.146;14.024;2023-09-19T09:16:33;1.33;;;0.90;;
71959;SDS011;59832;51.146;14.024;2023-09-19T09:21:27;3.30;;;0.90;;
71959;SDS011;59832;51.146;14.024;2023-09-19T09:23:54;0.90;;;0.85;;
71959;SDS011;59832;51.146;14.024;2023-09-19T09:27:04;1.25;;;1.00;;
71959;SDS011;59832;51.146;14.024;2023-09-19T09:29:10;6.10;;;0.80;;
71959;SDS011;59832;51.146;14.024;2023-09-19T09:31:37;3.00;;;0.95;;
71959;SDS011;59832;51.146;14.024;2023-09-19T09:36:37;4.53;;;1.10;;
71959;SDS011;59832;51.146;14.024;2023-09-19T09:39:06;2.17;;;0.80;;
71959;SDS011;59832;51.146;14.024;2023-09-19T09:41:45;4.30;;;0.68;;
71959;SDS011;59832;51.146;14.024;2023-09-19T09:44:12;1.58;;;0.60;;
71959;SDS011;59832;51.146;14.024;2023-09-19T09:46:47;2.00;;;1.00;;
71959;SDS011;59832;51.146;14.024;2023-09-19T09:49:25;2.15;;;0.90;;
71959;SDS011;59832;51.146;14.024;2023-09-19T09:51:59;2.10;;;0.70;;
71959;SDS011;59832;51.146;14.024;2023-09-19T09:54:38;1.85;;;0.80;;
71959;SDS011;59832;51.146;14.024;2023-09-19T09:57:06;1.95;;;0.80;;
71959;SDS011;59832;51.146;14.024;2023-09-19T09:59:50;2.25;;;0.70;;
71959;SDS011;59832;51.146;14.024;2023-09-19T10:02:20;1.88;;;0.73;;
71959;SDS011;59832;51.146;14.024;2023-09-19T10:04:56;2.50;;;0.85;;
71959;SDS011;59832;51.146;14.024;2023-09-19T10:07:51;3.13;;;0.80;;
71959;SDS011;59832;51.146;14.024;2023-09-19T10:10:45;0.90;;;0.70;;
71959;SDS011;59832;51.146;14.024;2023-09-19T10:13:20;2.55;;;0.70;;
71959;SDS011;59832;51.146;14.024;2023-09-19T10:15:50;1.35;;;0.70;;
71959;SDS011;59832;51.146;14.024;2023-09-19T10:18:23;1.52;;;0.70;;
71959;SDS011;59832;51.146;14.024;2023-09-19T10:20:51;1.20;;;0.70;;
71959;SDS011;59832;51.146;14.024;2023-09-19T10:25:53;3.22;;;0.80;;
71959;SDS011;59832;51.146;14.024;2023-09-19T10:30:50;1.10;;;0.70;;
71959;SDS011;59832;51.146;14.024;2023-09-19T10:33:21;2.58;;;0.77;;
71959;SDS011;59832;51.146;14.024;2023-09-19T10:35:52;0.73;;;0.60;;
71959;SDS011;59832;51.146;14.024;2023-09-19T10:38:23;1.98;;;0.88;;
71959;SDS011;59832;51.146;14.024;2023-09-19T10:40:52;0.90;;;0.70;;
71959;SDS011;59832;51.146;14.024;2023-09-19T10:43:25;0.90;;;0.80;;
71959;SDS011;59832;51.146;14.024;2023-09-19T10:46:01;3.20;;;0.80;;
71959;SDS011;59832;51.146;14.024;2023-09-19T10:48:30;1.30;;;0.80;;
71959;SDS011;59832;51.146;14.024;2023-09-19T10:51:11;2.50;;;0.80;;
71959;SDS011;59832;51.146;14.024;2023-09-19T10:53:51;1.38;;;0.88;;
71959;SDS011;59832;51.146;14.024;2023-09-19T10:56:23;4.90;;;0.80;;
71959;SDS011;59832;51.146;14.024;2023-09-19T10:59:10;1.00;;;0.52;;
71959;SDS011;59832;51.146;14.024;2023-09-19T11:04:31;1.02;;;0.68;;
71959;SDS011;59832;51.146;14.024;2023-09-19T11:07:03;3.35;;;0.90;;
71959;SDS011;59832;51.146;14.024;2023-09-19T11:09:53;0.73;;;0.70;;
71959;SDS011;59832;51.146;14.024;2023-09-19T11:15:02;1.50;;;1.00;;
71959;SDS011;59832;51.146;14.024;2023-09-19T11:17:35;1.60;;;0.90;;
71959;SDS011;59832;51.146;14.024;2023-09-19T11:30:42;1.10;;;1.00;;
71959;SDS011;59832;51.146;14.024;2023-09-19T11:33:23;1.70;;;1.02;;
71959;SDS011;59832;51.146;14.024;2023-09-19T11:43:46;1.80;;;1.05;;
71959;SDS011;59832;51.146;14.024;2023-09-19T11:46:27;1.63;;;1.13;;
71959;SDS011;59832;51.146;14.024;2023-09-19T11:48:54;1.58;;;1.10;;
71959;SDS011;59832;51.146;14.024;2023-09-19T11:51:36;2.53;;;1.10;;
71959;SDS011;59832;51.146;14.024;2023-09-19T11:54:10;1.35;;;1.10;;
71959;SDS011;59832;51.146;14.024;2023-09-19T11:56:44;1.35;;;1.20;;
71959;SDS011;59832;51.146;14.024;2023-09-19T11:59:11;1.98;;;1.10;;
71959;SDS011;59832;51.146;14.024;2023-09-19T12:01:52;4.88;;;1.40;;
71959;SDS011;59832;51.146;14.024;2023-09-19T12:07:11;2.55;;;1.23;;
71959;SDS011;59832;51.146;14.024;2023-09-19T12:09:43;1.42;;;1.15;;
71959;SDS011;59832;51.146;14.024;2023-09-19T12:12:22;2.42;;;1.25;;
71959;SDS011;59832;51.146;14.024;2023-09-19T12:14:53;2.05;;;1.08;;
71959;SDS011;59832;51.146;14.024;2023-09-19T12:17:21;1.20;;;1.00;;
71959;SDS011;59832;51.146;14.024;2023-09-19T12:19:53;2.75;;;1.08;;
71959;SDS011;59832;51.146;14.024;2023-09-19T12:22:23;2.70;;;1.10;;
71959;SDS011;59832;51.146;14.024;2023-09-19T12:24:51;4.07;;;1.00;;
71959;SDS011;59832;51.146;14.024;2023-09-19T12:27:20;3.45;;;1.17;;
71959;SDS011;59832;51.146;14.024;2023-09-19T12:29:49;1.65;;;1.10;;
71959;SDS011;59832;51.146;14.024;2023-09-19T12:34:50;3.33;;;0.88;;
71959;SDS011;59832;51.146;14.024;2023-09-19T12:37:19;3.70;;;1.10;;
71959;SDS011;59832;51.146;14.024;2023-09-19T12:39:50;3.20;;;0.95;;
71959;SDS011;59832;51.146;14.024;2023-09-19T12:42:21;4.35;;;1.05;;
71959;SDS011;59832;51.146;14.024;2023-09-19T12:44:52;1.42;;;1.00;;
71959;SDS011;59832;51.146;14.024;2023-09-19T12:47:24;1.27;;;0.95;;
71959;SDS011;59832;51.146;14.024;2023-09-19T12:52:48;2.05;;;1.05;;
71959;SDS011;59832;51.146;14.024;2023-09-19T12:55:19;2.10;;;1.13;;
71959;SDS011;59832;51.146;14.024;2023-09-19T12:58:08;1.98;;;1.08;;
71959;SDS011;59832;51.146;14.024;2023-09-19T13:00:39;1.38;;;1.08;;
71959;SDS011;59832;51.146;14.024;2023-09-19T13:03:16;1.92;;;1.10;;
71959;SDS011;59832;51.146;14.024;2023-09-19T13:05:50;2.25;;;1.10;;
71959;SDS011;59832;51.146;14.024;2023-09-19T13:08:19;1.85;;;1.00;;
71959;SDS011;59832;51.146;14.024;2023-09-19T13:11:02;2.15;;;1.00;;
71959;SDS011;59832;51.146;14.024;2023-09-19T13:13:33;1.48;;;1.00;;
71959;SDS011;59832;51.146;14.024;2023-09-19T13:16:02;3.88;;;1.13;;
71959;SDS011;59832;51.146;14.024;2023-09-19T13:18:30;1.10;;;0.98;;
71959;SDS011;59832;51.146;14.024;2023-09-19T13:21:09;1.35;;;0.90;;
71959;SDS011;59832;51.146;14.024;2023-09-19T13:23:38;2.33;;;1.10;;
71959;SDS011;59832;51.146;14.024;2023-09-19T13:26:06;1.60;;;1.20;;
71959;SDS011;59832;51.146;14.024;2023-09-19T13:28:33;2.25;;;1.10;;
71959;SDS011;59832;51.146;14.024;2023-09-19T13:31:00;1.55;;;1.00;;
71959;SDS011;59832;51.146;14.024;2023-09-19T13:35:55;1.15;;;1.00;;
71959;SDS011;59832;51.146;14.024;2023-09-19T13:38:21;0.80;;;0.80;;
71959;SDS011;59832;51.146;14.024;2023-09-19T13:40:48;5.35;;;1.10;;
71959;SDS011;59832;51.146;14.024;2023-09-19T13:43:15;0.98;;;0.80;;
71959;SDS011;59832;51.146;14.024;2023-09-19T13:45:42;1.88;;;1.20;;
71959;SDS011;59832;51.146;14.024;2023-09-19T13:48:09;1.88;;;0.93;;
71959;SDS011;59832;51.146;14.024;2023-09-19T13:50:37;2.63;;;0.90;;
71959;SDS011;59832;51.146;14.024;2023-09-19T13:53:08;3.70;;;1.02;;
71959;SDS011;59832;51.146;14.024;2023-09-19T13:55:35;2.08;;;1.10;;
71959;SDS011;59832;51.146;14.024;2023-09-19T13:58:04;2.70;;;1.00;;
71959;SDS011;59832;51.146;14.024;2023-09-19T14:00:32;1.17;;;1.05;;
71959;SDS011;59832;51.146;14.024;2023-09-19T14:03:02;3.58;;;0.93;;
71959;SDS011;59832;51.146;14.024;2023-09-19T14:05:31;1.17;;;1.00;;
71959;SDS011;59832;51.146;14.024;2023-09-19T14:07:57;1.70;;;0.93;;
71959;SDS011;59832;51.146;14.024;2023-09-19T14:10:25;0.90;;;0.80;;
71959;SDS011;59832;51.146;14.024;2023-09-19T14:12:57;3.05;;;1.27;;
71959;SDS011;59832;51.146;14.024;2023-09-19T14:15:27;1.35;;;1.10;;
71959;SDS011;59832;51.146;14.024;2023-09-19T14:17:57;1.27;;;1.00;;
71959;SDS011;59832;51.146;14.024;2023-09-19T14:20:26;4.53;;;1.02;;
71959;SDS011;59832;51.146;14.024;2023-09-19T14:22:53;2.88;;;1.00;;
71959;SDS011;59832;51.146;14.024;2023-09-19T14:25:20;1.65;;;0.90;;
71959;SDS011;59832;51.146;14.024;2023-09-19T14:27:49;1.52;;;0.90;;
71959;SDS011;59832;51.146;14.024;2023-09-19T14:30:16;1.40;;;1.20;;
71959;SDS011;59832;51.146;14.024;2023-09-19T14:32:42;1.13;;;1.02;;
71959;SDS011;59832;51.146;14.024;2023-09-19T14:35:09;1.33;;;1.23;;
71959;SDS011;59832;51.146;14.024;2023-09-19T14:37:37;1.80;;;1.20;;
71959;SDS011;59832;51.146;14.024;2023-09-19T14:40:06;3.08;;;1.95;;
71959;SDS011;59832;51.146;14.024;2023-09-19T14:42:36;2.95;;;1.95;;
71959;SDS011;59832;51.146;14.024;2023-09-19T14:45:04;1.48;;;1.02;;
71959;SDS011;59832;51.146;14.024;2023-09-19T14:47:32;1.20;;;1.10;;
71959;SDS011;59832;51.146;14.024;2023-09-19T14:50:03;1.23;;;1.10;;
71959;SDS011;59832;51.146;14.024;2023-09-19T14:52:33;1.17;;;1.00;;
71959;SDS011;59832;51.146;14.024;2023-09-19T14:55:00;3.72;;;1.20;;
71959;SDS011;59832;51.146;14.024;2023-09-19T14:57:28;2.28;;;1.10;;
71959;SDS011;59832;51.146;14.024;2023-09-19T14:59:55;1.58;;;1.10;;
71959;SDS011;59832;51.146;14.024;2023-09-19T15:02:22;1.35;;;1.17;;
71959;SDS011;59832;51.146;14.024;2023-09-19T15:07:17;1.83;;;1.30;;
71959;SDS011;59832;51.146;14.024;2023-09-19T15:09:44;5.25;;;1.20;;
71959;SDS011;59832;51.146;14.024;2023-09-19T15:12:10;1.50;;;1.10;;
71959;SDS011;59832;51.146;14.024;2023-09-19T15:14:40;5.82;;;1.40;;
71959;SDS011;59832;51.146;14.024;2023-09-19T15:17:10;4.80;;;1.27;;
71959;SDS011;59832;51.146;14.024;2023-09-19T15:19:37;3.33;;;1.08;;
71959;SDS011;59832;51.146;14.024;2023-09-19T15:22:03;1.30;;;1.20;;
71959;SDS011;59832;51.146;14.024;2023-09-19T15:26:57;1.65;;;1.30;;
71959;SDS011;59832;51.146;14.024;2023-09-19T15:29:23;1.50;;;1.30;;
71959;SDS011;59832;51.146;14.024;2023-09-19T15:31:50;2.08;;;1.50;;
71959;SDS011;59832;51.146;14.024;2023-09-19T15:34:17;1.35;;;1.25;;
71959;SDS011;59832;51.146;14.024;2023-09-19T15:36:43;2.05;;;1.23;;
71959;SDS011;59832;51.146;14.024;2023-09-19T15:39:10;3.15;;;1.33;;
71959;SDS011;59832;51.146;14.024;2023-09-19T15:41:41;1.40;;;1.20;;
71959;SDS011;59832;51.146;14.024;2023-09-19T15:44:12;3.38;;;1.30;;
71959;SDS011;59832;51.146;14.024;2023-09-19T15:46:40;4.05;;;1.40;;
71959;SDS011;59832;51.146;14.024;2023-09-19T15:49:08;2.63;;;1.45;;
71959;SDS011;59832;51.146;14.024;2023-09-19T15:51:35;1.90;;;1.30;;
71959;SDS011;59832;51.146;14.024;2023-09-19T15:54:07;1.67;;;1.30;;
71959;SDS011;59832;51.146;14.024;2023-09-19T15:56:36;2.72;;;1.40;;
71959;SDS011;59832;51.146;14.024;2023-09-19T15:59:02;1.85;;;1.20;;
71959;SDS011;59832;51.146;14.024;2023-09-19T16:01:30;2.10;;;1.30;;
71959;SDS011;59832;51.146;14.024;2023-09-19T16:03:56;1.58;;;1.48;;
71959;SDS011;59832;51.146;14.024;2023-09-19T16:06:27;2.70;;;1.60;;
71959;SDS011;59832;51.146;14.024;2023-09-19T16:08:56;1.75;;;1.55;;
71959;SDS011;59832;51.146;14.024;2023-09-19T16:11:27;2.47;;;1.65;;
71959;SDS011;59832;51.146;14.024;2023-09-19T16:13:54;1.50;;;1.38;;
71959;SDS011;59832;51.146;14.024;2023-09-19T16:16:22;1.50;;;1.40;;